Terminal Aerodrome Forecast
Issued by NWS

Current Version | Previous Version | Graphics & Text | Print | Product List | Glossary On
Versions: 1 2 3 4 5 6 7 8 9 10 11 12 13 14 15
000
FTUS41 KPBZ 181000 AAA
TAFMGW
TAF AMD
KMGW 181001Z 1810/1906 24007KT P6SM BKN035
     FM181100 26008G16KT P6SM BKN025
     FM182000 28012G22KT P6SM VCSH OVC025
     FM190500 30009KT P6SM BKN025=

USA.gov is the U.S. government's official web portal to all federal, state and local government web resources and services.